createdAt,value
2017-03-14T00:00:50.197Z,4.1
2017-03-14T00:01:52.639Z,4.1
2017-03-14T00:02:55.581Z,4.1
2017-03-14T00:03:57.856Z,4.1
2017-03-14T00:05:00.879Z,4.1
2017-03-14T00:06:03.831Z,4.1
2017-03-14T00:07:05.770Z,4.1
2017-03-14T00:08:08.209Z,4.1
2017-03-14T00:09:10.659Z,4.1
2017-03-14T00:10:13.858Z,4.1
2017-03-14T00:11:16.321Z,4.1
2017-03-14T00:12:19.274Z,4.1
2017-03-14T00:13:21.212Z,4
2017-03-14T00:14:23.651Z,4
2017-03-14T00:15:26.344Z,4
2017-03-14T00:16:29.302Z,4
2017-03-14T00:17:31.642Z,4
2017-03-14T00:18:34.594Z,4
2017-03-14T00:19:36.529Z,4
2017-03-14T00:20:39.565Z,4
2017-03-14T00:21:41.531Z,4
2017-03-14T00:23:46.772Z,4
2017-03-14T00:24:49.210Z,4
2017-03-14T00:25:52.409Z,4
2017-03-14T00:26:54.350Z,4
2017-03-14T00:27:57.296Z,4
2017-03-14T00:28:59.736Z,4
2017-03-14T00:30:02.178Z,4
2017-03-14T00:31:04.866Z,4
2017-03-14T00:32:07.308Z,3.9
2017-03-14T00:33:09.746Z,3.9
2017-03-14T00:34:12.687Z,3.9
2017-03-14T00:35:15.121Z,3.9
2017-03-14T00:36:17.806Z,3.9
2017-03-14T00:37:20.242Z,4
2017-03-14T00:38:22.714Z,4
2017-03-14T00:39:25.188Z,4
2017-03-14T00:40:28.151Z,4
2017-03-14T00:41:31.041Z,4
2017-03-14T00:42:32.810Z,3.9
2017-03-14T00:43:35.764Z,3.9
2017-03-14T00:44:38.205Z,3.9
2017-03-14T00:45:40.652Z,3.9
2017-03-14T00:46:43.848Z,3.9
2017-03-14T00:47:45.779Z,3.9
2017-03-14T00:48:49.234Z,3.9
2017-03-14T00:49:51.195Z,3.8
2017-03-14T00:50:53.635Z,3.8
2017-03-14T00:51:56.160Z,3.8
2017-03-14T00:52:58.603Z,3.8
2017-03-14T00:54:01.549Z,3.8
2017-03-14T00:55:04.514Z,3.8
2017-03-14T00:56:06.450Z,3.8
2017-03-14T00:57:09.149Z,3.8
2017-03-14T00:58:11.459Z,3.8
2017-03-14T00:59:14.404Z,3.8
2017-03-14T01:00:16.855Z,3.8
2017-03-14T01:01:19.817Z,3.8
2017-03-14T01:02:21.834Z,3.8
2017-03-14T01:03:24.274Z,3.8
2017-03-14T01:04:27.585Z,3.8
2017-03-14T01:05:29.525Z,3.8
2017-03-14T01:06:31.962Z,3.8
2017-03-14T01:07:35.197Z,3.8
2017-03-14T01:08:37.138Z,3.8
2017-03-14T01:09:40.094Z,3.8
2017-03-14T01:10:42.359Z,3.7
2017-03-14T01:11:44.837Z,3.7
2017-03-14T01:12:47.528Z,3.7
2017-03-14T01:13:49.791Z,3.7
2017-03-14T01:14:52.728Z,3.7
2017-03-14T01:15:55.164Z,3.6
2017-03-14T01:16:57.602Z,3.6
2017-03-14T01:18:00.796Z,3.6
2017-03-14T01:19:02.741Z,3.6
2017-03-14T01:20:05.241Z,3.6
2017-03-14T01:21:08.189Z,3.6
2017-03-14T01:22:10.639Z,3.6
2017-03-14T01:23:13.340Z,3.6
2017-03-14T01:24:15.783Z,3.6
2017-03-14T01:25:18.053Z,3.6
2017-03-14T01:26:20.842Z,3.7
2017-03-14T01:27:23.116Z,3.8
2017-03-14T01:28:26.146Z,3.8
2017-03-14T01:29:28.417Z,3.9
2017-03-14T01:30:31.893Z,3.9
2017-03-14T01:31:33.659Z,4
2017-03-14T01:32:36.099Z,4
2017-03-14T01:33:39.307Z,4.1
2017-03-14T01:34:41.242Z,4.1
2017-03-14T01:35:44.184Z,4.1
2017-03-14T01:36:47.154Z,4.2
2017-03-14T01:37:49.095Z,4.2
2017-03-14T01:39:54.694Z,4.2
2017-03-14T01:40:56.641Z,4.3
2017-03-14T01:41:59.084Z,4.3
2017-03-14T01:43:02.030Z,4.3
2017-03-14T01:44:04.847Z,4.3
2017-03-14T01:45:07.564Z,4.3
2017-03-14T01:46:09.507Z,4.3
2017-03-14T01:47:11.948Z,4.4
2017-03-14T01:48:14.890Z,4.4
2017-03-14T01:49:17.331Z,4.5
2017-03-14T01:51:22.931Z,4.5
2017-03-14T01:52:24.874Z,4.5
2017-03-14T01:53:27.817Z,4.5
2017-03-14T01:54:30.256Z,4.5
2017-03-14T01:55:32.700Z,4.5
2017-03-14T01:56:36.505Z,4.5
2017-03-14T01:57:38.452Z,4.5
2017-03-14T01:58:40.234Z,4.5
2017-03-14T01:59:43.186Z,4.5
2017-03-14T02:00:45.629Z,4.5
2017-03-14T02:01:48.320Z,4.5
2017-03-14T02:02:50.764Z,4.5
2017-03-14T02:04:55.637Z,4.5
2017-03-14T02:05:59.100Z,4.5
2017-03-14T02:07:01.288Z,4.5
2017-03-14T02:08:03.732Z,4.5
2017-03-14T02:09:06.172Z,4.6
2017-03-14T02:10:08.614Z,4.6
2017-03-14T02:11:11.565Z,4.6
2017-03-14T02:12:14.253Z,4.6
2017-03-14T02:13:16.029Z,4.6
2017-03-14T02:14:18.965Z,4.6
2017-03-14T02:15:21.924Z,4.6
2017-03-14T02:16:24.363Z,4.6
2017-03-14T02:17:26.890Z,4.6
2017-03-14T02:18:29.330Z,4.6
2017-03-14T02:19:31.773Z,4.6
2017-03-14T02:20:34.750Z,4.6
2017-03-14T02:21:37.200Z,4.6
2017-03-14T02:22:39.894Z,4.6
2017-03-14T02:23:42.357Z,4.6
2017-03-14T02:24:44.799Z,4.7
2017-03-14T02:25:47.769Z,4.7
2017-03-14T02:26:49.705Z,4.7
2017-03-14T02:27:52.913Z,4.8
2017-03-14T02:28:55.381Z,4.8
2017-03-14T02:29:57.319Z,4.7
2017-03-14T02:31:00.260Z,4.8
2017-03-14T02:32:03.214Z,4.8
2017-03-14T02:33:05.408Z,4.8
2017-03-14T02:34:07.851Z,4.7
2017-03-14T02:35:10.323Z,4.7
2017-03-14T02:36:12.763Z,4.7
2017-03-14T02:37:15.703Z,4.6
2017-03-14T02:38:18.394Z,4.6
2017-03-14T02:39:21.362Z,4.6
2017-03-14T02:40:23.297Z,4.6
2017-03-14T02:41:25.740Z,4.6
2017-03-14T02:42:28.008Z,4.5
2017-03-14T02:43:31.210Z,4.5
2017-03-14T02:44:33.486Z,4.5
2017-03-14T02:45:35.924Z,4.5
2017-03-14T02:46:38.866Z,4.5
2017-03-14T02:47:42.344Z,4.5
2017-03-14T02:48:44.031Z,4.5
2017-03-14T02:49:46.478Z,4.5
2017-03-14T02:50:48.925Z,4.5
2017-03-14T02:51:51.368Z,4.5
2017-03-14T02:52:54.144Z,4.5
2017-03-14T02:53:56.883Z,4.5
2017-03-14T02:54:59.331Z,4.5
2017-03-14T02:56:01.772Z,4.5
2017-03-14T02:57:04.743Z,4.5
2017-03-14T02:58:07.193Z,4.5
2017-03-14T02:59:09.719Z,4.5
2017-03-14T03:00:12.157Z,4.5
2017-03-14T03:01:14.597Z,4.5
2017-03-14T03:02:17.034Z,4.5
2017-03-14T03:03:20.509Z,4.5
2017-03-14T03:04:22.706Z,4.5
2017-03-14T03:05:25.147Z,4.5
2017-03-14T03:06:27.420Z,4.5
2017-03-14T03:07:29.873Z,4.6
2017-03-14T03:08:33.335Z,4.6
2017-03-14T03:09:35.525Z,4.6
2017-03-14T03:10:37.973Z,4.6
2017-03-14T03:11:40.453Z,4.6
2017-03-14T03:12:42.896Z,4.6
2017-03-14T03:13:45.328Z,4.7
2017-03-14T03:14:48.522Z,4.7
2017-03-14T03:15:50.973Z,4.8
2017-03-14T03:16:53.932Z,4.8
2017-03-14T03:17:55.881Z,4.8
2017-03-14T03:18:58.321Z,4.8
2017-03-14T03:20:01.009Z,4.8
2017-03-14T03:21:03.452Z,4.8
2017-03-14T03:22:05.726Z,4.8
2017-03-14T03:23:08.665Z,4.8
2017-03-14T03:24:11.572Z,4.8
2017-03-14T03:25:14.260Z,4.9
2017-03-14T03:26:16.722Z,4.9
2017-03-14T03:27:19.192Z,4.9
2017-03-14T03:28:22.288Z,4.9
2017-03-14T03:29:24.057Z,4.9
2017-03-14T03:30:26.741Z,4.9
2017-03-14T03:31:29.182Z,5
2017-03-14T03:32:31.619Z,5
2017-03-14T03:33:34.563Z,5
2017-03-14T03:34:37.528Z,5
2017-03-14T03:35:39.767Z,5
2017-03-14T03:36:42.214Z,5
2017-03-14T03:37:45.037Z,5
2017-03-14T03:38:47.475Z,5
2017-03-14T03:39:49.913Z,5
2017-03-14T03:40:53.128Z,5
2017-03-14T03:41:55.068Z,5
2017-03-14T03:42:57.505Z,5
2017-03-14T03:44:00.457Z,5
2017-03-14T03:45:02.890Z,5
2017-03-14T03:46:05.928Z,5
2017-03-14T03:47:07.857Z,5
2017-03-14T03:48:10.807Z,5
2017-03-14T03:49:13.242Z,5
2017-03-14T03:51:18.341Z,5
2017-03-14T03:52:21.291Z,5
2017-03-14T03:53:23.953Z,5
2017-03-14T03:54:25.921Z,5
2017-03-14T03:55:28.354Z,5.1
2017-03-14T03:56:31.379Z,5.1
2017-03-14T03:57:33.818Z,5.1
2017-03-14T03:58:36.257Z,5.1
2017-03-14T03:59:38.697Z,5.1
2017-03-14T04:00:41.130Z,5.1
2017-03-14T04:01:44.319Z,5.1
2017-03-14T04:02:46.932Z,5.2
2017-03-14T04:03:49.767Z,5.1
2017-03-14T04:04:51.726Z,5.1
2017-03-14T04:05:54.684Z,5.1
2017-03-14T04:06:56.708Z,5.1
2017-03-14T04:07:59.153Z,5.1
2017-03-14T04:09:02.096Z,5.1
2017-03-14T04:10:04.362Z,5.1
2017-03-14T04:11:07.138Z,5.1
2017-03-14T04:12:09.831Z,5.1
2017-03-14T04:13:12.270Z,5.1
2017-03-14T04:14:14.708Z,5.1
2017-03-14T04:15:17.648Z,5.1
2017-03-14T04:16:20.600Z,5.2
2017-03-14T04:17:22.791Z,5.2
2017-03-14T04:18:25.757Z,5.2
2017-03-14T04:19:27.691Z,5.2
2017-03-14T04:20:30.136Z,5.3
2017-03-14T04:21:33.073Z,5.3
2017-03-14T04:22:35.762Z,5.3
2017-03-14T04:23:38.202Z,5.3
2017-03-14T04:24:41.152Z,5.3
2017-03-14T04:25:43.088Z,5.3
2017-03-14T04:26:45.532Z,5.3
2017-03-14T04:27:48.727Z,5.3
2017-03-14T04:28:51.167Z,5.3
2017-03-14T04:29:53.608Z,5.3
2017-03-14T04:30:56.564Z,5.3
2017-03-14T04:31:58.501Z,5.3
2017-03-14T04:33:01.743Z,5.3
2017-03-14T04:34:03.678Z,5.3
2017-03-14T04:35:06.626Z,5.3
2017-03-14T04:37:11.469Z,5.2
2017-03-14T04:38:14.165Z,5.2
2017-03-14T04:39:16.962Z,5.1
2017-03-14T04:40:19.396Z,5.1
2017-03-14T04:41:21.672Z,5.1
2017-03-14T04:42:24.614Z,5.1
2017-03-14T04:43:27.143Z,5.1
2017-03-14T04:44:30.119Z,5.2
2017-03-14T04:45:32.055Z,5.2
2017-03-14T04:46:35.512Z,5.3
2017-03-14T04:47:37.285Z,5.3
2017-03-14T04:48:40.035Z,5.3
2017-03-14T04:49:42.478Z,5.3
2017-03-14T04:50:45.471Z,5.3
2017-03-14T04:51:47.945Z,5.3
2017-03-14T04:52:50.393Z,5.3
2017-03-14T04:53:53.618Z,5.3
2017-03-14T04:54:55.550Z,5.3
2017-03-14T04:55:57.985Z,5.3
2017-03-14T04:57:00.421Z,5.3
2017-03-14T04:58:03.360Z,5.3
2017-03-14T04:59:06.045Z,5.3
2017-03-14T05:00:08.495Z,5.3
2017-03-14T05:01:10.932Z,5.3
2017-03-14T05:02:13.368Z,5.3
2017-03-14T05:03:16.320Z,5.3
2017-03-14T05:04:19.545Z,5.3
2017-03-14T05:05:20.978Z,5.2
2017-03-14T05:06:23.762Z,5.2
2017-03-14T05:07:26.720Z,5.3
2017-03-14T05:08:29.161Z,5.3
2017-03-14T05:09:31.865Z,5.3
2017-03-14T05:10:34.144Z,5.3
2017-03-14T05:11:36.932Z,5.3
2017-03-14T05:12:39.234Z,5.3
2017-03-14T05:13:41.509Z,5.3
2017-03-14T05:14:45.236Z,5.3
2017-03-14T05:15:47.174Z,5.3
2017-03-14T05:16:49.611Z,5.2
2017-03-14T05:17:52.049Z,5.2
2017-03-14T05:18:54.488Z,5.2
2017-03-14T05:19:58.196Z,5.2
2017-03-14T05:21:00.133Z,5.2
2017-03-14T05:22:02.575Z,5.2
2017-03-14T05:23:05.015Z,5.2
2017-03-14T05:24:07.465Z,5.1
2017-03-14T05:25:11.185Z,5.1
2017-03-14T05:26:13.155Z,5.1
2017-03-14T05:27:15.593Z,5.1
2017-03-14T05:28:18.033Z,5.1
2017-03-14T05:29:20.470Z,5.1
2017-03-14T05:30:23.158Z,5.1
2017-03-14T05:31:25.597Z,5.1
2017-03-14T05:32:28.032Z,5.1
2017-03-14T05:33:30.985Z,5.1
2017-03-14T05:34:33.428Z,5
2017-03-14T05:35:36.115Z,5
2017-03-14T05:36:38.381Z,5
2017-03-14T05:37:41.326Z,5
2017-03-14T05:38:43.764Z,5
2017-03-14T05:39:46.036Z,5
2017-03-14T05:40:49.228Z,5
2017-03-14T05:41:52.066Z,5
2017-03-14T05:42:54.511Z,5
2017-03-14T05:43:56.785Z,5.1
2017-03-14T05:44:59.580Z,5.1
2017-03-14T05:46:01.813Z,5.1
2017-03-14T05:47:04.252Z,5.1
2017-03-14T05:48:06.694Z,5.1
2017-03-14T05:49:09.640Z,5.1
2017-03-14T05:50:12.089Z,5.1
2017-03-14T05:51:14.777Z,5.1
2017-03-14T05:52:17.216Z,5.1
2017-03-14T05:53:19.659Z,5.2
2017-03-14T05:54:22.438Z,5.2
2017-03-14T05:55:25.225Z,5.3
2017-03-14T05:56:27.746Z,5.3
2017-03-14T05:57:30.700Z,5.3
2017-03-14T05:58:33.152Z,5.3
2017-03-14T05:59:35.088Z,5.3
2017-03-14T06:00:37.863Z,5.3
2017-03-14T06:01:40.889Z,5.3
2017-03-14T06:02:42.826Z,5.3
2017-03-14T06:03:45.772Z,5.3
2017-03-14T06:04:48.056Z,5.4
2017-03-14T06:05:50.832Z,5.4
2017-03-14T06:06:53.353Z,5.5
2017-03-14T06:07:55.794Z,5.5
2017-03-14T06:08:58.730Z,5.5
2017-03-14T06:10:01.166Z,5.5
2017-03-14T06:11:03.603Z,5.5
2017-03-14T06:12:06.819Z,5.5
2017-03-14T06:13:09.095Z,5.5
2017-03-14T06:14:11.673Z,5.5
2017-03-14T06:15:14.113Z,5.6
2017-03-14T06:16:16.551Z,5.6
2017-03-14T06:17:19.006Z,5.6
2017-03-14T06:18:22.468Z,5.6
2017-03-14T06:19:24.411Z,5.7
2017-03-14T06:20:26.876Z,5.7
2017-03-14T06:21:29.319Z,5.7
2017-03-14T06:22:32.511Z,5.7
2017-03-14T06:23:34.440Z,5.8
2017-03-14T06:25:39.788Z,5.7
2017-03-14T06:26:42.223Z,5.7
2017-03-14T06:27:45.419Z,5.8
2017-03-14T06:28:47.684Z,5.8
2017-03-14T06:29:50.116Z,5.8
2017-03-14T06:30:52.553Z,5.8
2017-03-14T06:31:55.495Z,5.8
2017-03-14T06:32:58.185Z,5.8
2017-03-14T06:34:00.623Z,5.8
2017-03-14T06:35:03.735Z,5.9
2017-03-14T06:36:05.510Z,5.9
2017-03-14T06:37:08.459Z,6
2017-03-14T06:38:11.149Z,6
2017-03-14T06:39:13.585Z,6
2017-03-14T06:40:16.033Z,6
2017-03-14T06:41:18.303Z,6
2017-03-14T06:42:21.243Z,6.1
2017-03-14T06:43:23.768Z,6.1
2017-03-14T06:44:26.205Z,6.1
2017-03-14T06:45:29.144Z,6.1
2017-03-14T06:46:31.275Z,6.1
2017-03-14T06:47:34.214Z,6.1
2017-03-14T06:48:36.569Z,6.1
2017-03-14T06:49:39.507Z,6.2
2017-03-14T06:50:41.946Z,6.2
2017-03-14T06:51:44.386Z,6.3
2017-03-14T06:52:46.827Z,6.3
2017-03-14T06:53:50.025Z,6.3
2017-03-14T06:54:51.973Z,6.3
2017-03-14T06:56:57.320Z,6.4
2017-03-14T06:58:00.279Z,6.5
2017-03-14T06:59:02.966Z,6.5
2017-03-14T07:00:04.908Z,6.5
2017-03-14T07:01:07.868Z,6.5
2017-03-14T07:02:10.142Z,6.5
2017-03-14T07:03:13.084Z,6.5
2017-03-14T07:04:15.776Z,6.5
2017-03-14T07:05:18.046Z,6.5
2017-03-14T07:06:20.482Z,6.6
2017-03-14T07:06:50.543Z,6.6
2017-03-14T07:07:23.828Z,6.6
2017-03-14T07:08:25.788Z,6.6
2017-03-14T07:09:28.311Z,6.7
2017-03-14T07:10:31.247Z,6.7
2017-03-14T07:11:33.686Z,6.7
2017-03-14T07:12:36.461Z,6.8
2017-03-14T07:13:38.899Z,6.9
2017-03-14T07:14:41.471Z,6.9
2017-03-14T07:15:43.913Z,7
2017-03-14T07:16:46.353Z,7
2017-03-14T07:18:51.704Z,7.1
2017-03-14T07:19:54.392Z,7.1
2017-03-14T07:20:56.829Z,7.1
2017-03-14T07:21:59.776Z,7.2
2017-03-14T07:23:02.209Z,7.1
2017-03-14T07:24:04.482Z,7.2
2017-03-14T07:25:07.681Z,7.2
2017-03-14T07:26:10.389Z,7.2
2017-03-14T07:27:12.836Z,7.1
2017-03-14T07:28:15.137Z,7.3
2017-03-14T07:29:17.594Z,7.3
2017-03-14T07:30:20.791Z,7.5
2017-03-14T07:31:23.573Z,7.5
2017-03-14T07:32:25.614Z,7.7
2017-03-14T07:33:28.058Z,7.8
2017-03-14T07:34:30.996Z,8.1
2017-03-14T07:35:33.685Z,8.1
2017-03-14T07:36:36.122Z,8.2
2017-03-14T07:37:38.562Z,8.2
2017-03-14T07:38:41.013Z,8.2
2017-03-14T07:39:43.958Z,8.1
2017-03-14T07:40:46.651Z,8.1
2017-03-14T07:41:49.087Z,8.1
2017-03-14T07:42:51.523Z,8.1
2017-03-14T07:43:54.996Z,8.1
2017-03-14T07:44:56.937Z,8.1
2017-03-14T07:45:59.620Z,8.1
2017-03-14T07:47:02.079Z,8.1
2017-03-14T07:48:04.526Z,8.1
2017-03-14T07:49:07.475Z,8.1
2017-03-14T07:50:09.908Z,8.1
2017-03-14T07:51:12.594Z,8.1
2017-03-14T07:52:14.865Z,8.2
2017-03-14T07:53:17.807Z,8.2
2017-03-14T07:54:20.255Z,8.3
2017-03-14T07:55:23.042Z,8.2
2017-03-14T07:56:25.563Z,8.2
2017-03-14T07:57:27.834Z,8.3
2017-03-14T07:58:30.773Z,8.3
2017-03-14T07:59:33.211Z,8.4
2017-03-14T08:00:36.150Z,8.6
2017-03-14T08:01:38.664Z,8.6
2017-03-14T08:02:41.102Z,8.7
2017-03-14T08:03:44.571Z,8.8
2017-03-14T08:04:46.506Z,8.8
2017-03-14T08:05:48.608Z,8.9
2017-03-14T08:06:51.804Z,9
2017-03-14T08:07:54.247Z,9.1
2017-03-14T08:08:57.024Z,9.1
2017-03-14T08:09:59.470Z,9.3
2017-03-14T08:11:02.412Z,9.5
2017-03-14T08:12:05.112Z,9.7
2017-03-14T08:14:09.958Z,9.8
2017-03-14T08:15:13.244Z,9.8
2017-03-14T08:16:15.175Z,10.1
2017-03-14T08:17:18.205Z,10.3
2017-03-14T08:18:20.643Z,10.2
2017-03-14T08:19:23.079Z,10.1
2017-03-14T08:20:26.015Z,10.1
2017-03-14T08:21:28.451Z,10
2017-03-14T08:22:31.145Z,10
2017-03-14T08:23:33.612Z,9.8
2017-03-14T08:24:36.558Z,9.8
2017-03-14T08:25:39.004Z,9.8
2017-03-14T08:26:41.445Z,9.6
2017-03-14T08:27:44.641Z,9.6
2017-03-14T08:28:47.082Z,9.6
2017-03-14T08:29:49.523Z,9.6
2017-03-14T08:30:51.958Z,9.5
2017-03-14T08:31:54.732Z,9.5
2017-03-14T08:32:57.926Z,9.5
2017-03-14T08:33:59.854Z,9.6
2017-03-14T08:35:03.144Z,9.7
2017-03-14T08:36:05.583Z,9.9
2017-03-14T08:37:08.017Z,10
2017-03-14T08:38:10.703Z,10
2017-03-14T08:39:13.146Z,9.7
2017-03-14T08:40:16.084Z,9.8
2017-03-14T08:41:18.552Z,9.8
2017-03-14T08:42:21.002Z,9.6
2017-03-14T08:43:24.190Z,9.5
2017-03-14T08:44:26.458Z,9.3
2017-03-14T08:45:28.913Z,9.5
2017-03-14T08:46:31.853Z,9.5
2017-03-14T08:47:34.830Z,9.6
2017-03-14T08:48:37.016Z,9.8
2017-03-14T08:49:39.444Z,9.8
2017-03-14T08:50:42.378Z,9.5
2017-03-14T08:51:44.701Z,9.5
2017-03-14T08:52:47.641Z,9.5
2017-03-14T08:53:50.665Z,9.6
2017-03-14T08:54:52.602Z,9.6
2017-03-14T08:55:55.546Z,9.6
2017-03-14T08:56:57.813Z,9.6
2017-03-14T08:58:00.647Z,9.5
2017-03-14T09:00:05.871Z,9.5
2017-03-14T09:01:09.324Z,9.5
2017-03-14T09:02:11.277Z,9.5
2017-03-14T09:03:13.689Z,9.5
2017-03-14T09:04:17.395Z,9.5
2017-03-14T09:05:19.672Z,9.5
2017-03-14T09:06:21.628Z,9.5
2017-03-14T09:07:24.564Z,9.5
2017-03-14T09:08:27.001Z,9.4
2017-03-14T09:09:30.246Z,9.5
2017-03-14T09:11:35.095Z,9.6
2017-03-14T09:12:37.528Z,9.8
2017-03-14T09:13:40.464Z,9.8
2017-03-14T09:14:43.153Z,10
2017-03-14T09:15:45.418Z,10
2017-03-14T09:16:48.193Z,9.8
2017-03-14T09:17:50.633Z,9.6
2017-03-14T09:18:53.570Z,9.6
2017-03-14T09:19:56.255Z,9.5
2017-03-14T09:20:58.689Z,9.3
2017-03-14T09:22:01.628Z,9.2
2017-03-14T09:23:03.897Z,9.3
2017-03-14T09:24:06.840Z,9.5
2017-03-14T09:25:09.528Z,9.5
2017-03-14T09:26:11.794Z,9.5
2017-03-14T09:26:47.053Z,9.5
2017-03-14T09:28:17.166Z,10
2017-03-14T09:29:20.102Z,10.3
2017-03-14T09:30:22.689Z,10.4
2017-03-14T09:31:25.141Z,10.5
2017-03-14T09:32:27.909Z,10.4
2017-03-14T09:33:30.361Z,10.6
2017-03-14T09:34:33.305Z,10.7
2017-03-14T09:35:35.994Z,10.7
2017-03-14T09:36:38.261Z,10.5
2017-03-14T09:37:41.031Z,10.4
2017-03-14T09:38:44.003Z,10.5
2017-03-14T09:39:46.998Z,10.5
2017-03-14T09:40:49.015Z,10.3
2017-03-14T09:41:52.301Z,10.1
2017-03-14T09:42:54.231Z,10.1
2017-03-14T09:43:57.168Z,10.3
2017-03-14T09:44:59.437Z,10.5
2017-03-14T09:46:02.458Z,10.6
2017-03-14T09:47:04.902Z,10.5
2017-03-14T09:48:07.167Z,10.5
2017-03-14T09:49:09.976Z,10.5
2017-03-14T09:50:12.716Z,10.6
2017-03-14T09:51:16.436Z,10.5
2017-03-14T09:53:20.778Z,10.5
2017-03-14T09:54:23.247Z,10.6
2017-03-14T09:55:27.227Z,10.6
2017-03-14T09:56:28.741Z,10.7
2017-03-14T09:57:31.177Z,10.7
2017-03-14T09:58:34.681Z,10.8
2017-03-14T09:59:36.612Z,10.6
2017-03-14T10:00:39.230Z,10.6
2017-03-14T10:01:42.422Z,10.7
2017-03-14T10:02:44.864Z,10.8
2017-03-14T10:03:47.298Z,10.8
2017-03-14T10:04:50.241Z,10.6
2017-03-14T10:05:52.683Z,10.7
2017-03-14T10:06:55.885Z,10.7
2017-03-14T10:07:57.810Z,10.9
2017-03-14T10:09:00.581Z,11.1
2017-03-14T10:10:03.521Z,11
2017-03-14T10:11:05.622Z,11.1
2017-03-14T10:12:08.808Z,11.3
2017-03-14T10:13:11.766Z,11.5
2017-03-14T10:14:13.700Z,11.5
2017-03-14T10:15:16.479Z,11.4
2017-03-14T10:16:19.421Z,11.5
2017-03-14T10:17:22.106Z,11.6
2017-03-14T10:18:24.548Z,11.6
2017-03-14T10:19:26.982Z,11.8
2017-03-14T10:20:29.920Z,11.9
2017-03-14T10:21:32.378Z,11.8
2017-03-14T10:22:35.361Z,11.8
2017-03-14T10:23:37.561Z,11.9
2017-03-14T10:24:40.947Z,11.5
2017-03-14T10:25:43.143Z,11.3
2017-03-14T10:26:45.990Z,11
2017-03-14T10:27:48.441Z,11
2017-03-14T10:28:51.277Z,11.2
2017-03-14T10:29:53.478Z,11.4
2017-03-14T10:30:56.314Z,11.5
2017-03-14T10:31:59.585Z,11.7
2017-03-14T10:33:02.170Z,11.5
2017-03-14T10:34:04.510Z,11.4
2017-03-14T10:35:07.391Z,11.5
2017-03-14T10:36:09.589Z,11.6
2017-03-14T10:37:12.451Z,11.8
2017-03-14T10:38:15.545Z,11.6
2017-03-14T10:39:17.878Z,11.8
2017-03-14T10:40:20.583Z,11.9
2017-03-14T10:41:22.917Z,12
2017-03-14T10:42:25.763Z,12
2017-03-14T10:43:28.717Z,12
2017-03-14T10:45:33.961Z,12.1
2017-03-14T10:46:36.299Z,12.1
2017-03-14T10:47:39.132Z,12
2017-03-14T10:48:42.219Z,12.2
2017-03-14T10:49:44.553Z,12.2
2017-03-14T10:50:46.888Z,12.3
2017-03-14T10:51:49.456Z,12.3
2017-03-14T10:52:52.295Z,12.3
2017-03-14T10:53:55.384Z,12.4
2017-03-14T10:54:57.722Z,12.5
2017-03-14T10:56:00.607Z,12.5
2017-03-14T10:57:02.813Z,12.6
2017-03-14T10:58:05.657Z,12.6
2017-03-14T10:59:08.615Z,12.5
2017-03-14T11:00:10.949Z,12.6
2017-03-14T11:01:13.783Z,12.6
2017-03-14T11:02:16.626Z,12.5
2017-03-14T11:03:18.959Z,12.5
2017-03-14T11:04:21.910Z,12.6
2017-03-14T11:05:24.742Z,12.5
2017-03-14T11:06:27.072Z,12.6
2017-03-14T11:07:29.771Z,12.6
2017-03-14T11:08:32.610Z,12.5
2017-03-14T11:09:35.704Z,12.5
2017-03-14T11:10:38.037Z,12.5
2017-03-14T11:11:40.371Z,12.4
2017-03-14T11:12:43.216Z,12.5
2017-03-14T11:13:45.918Z,12.6
2017-03-14T11:14:48.744Z,12.6
2017-03-14T11:15:51.084Z,12.7
2017-03-14T11:16:53.925Z,12.7
2017-03-14T11:17:56.764Z,12.8
2017-03-14T11:18:59.472Z,12.8
2017-03-14T11:20:01.916Z,12.9
2017-03-14T11:21:04.754Z,13
2017-03-14T11:22:07.591Z,13
2017-03-14T11:23:09.923Z,13
2017-03-14T11:24:12.755Z,12.9
2017-03-14T11:25:15.852Z,12.9
2017-03-14T11:26:18.193Z,13
2017-03-14T11:27:20.893Z,13
2017-03-14T11:28:23.726Z,12.8
2017-03-14T11:29:26.062Z,12.8
2017-03-14T11:30:29.143Z,12.6
2017-03-14T11:31:31.473Z,12.5
2017-03-14T11:32:34.312Z,12.4
2017-03-14T11:33:37.150Z,12.1
2017-03-14T11:34:39.488Z,12
2017-03-14T11:35:42.577Z,11.8
2017-03-14T11:36:44.908Z,11.6
2017-03-14T11:37:47.742Z,11.3
2017-03-14T11:38:50.577Z,11.2
2017-03-14T11:39:52.912Z,11.1
2017-03-14T11:40:56.061Z,11
2017-03-14T11:41:58.264Z,11
2017-03-14T11:43:01.098Z,10.8
2017-03-14T11:44:03.971Z,10.8
2017-03-14T11:45:06.300Z,10.7
2017-03-14T11:46:09.385Z,10.7
2017-03-14T11:47:11.586Z,10.6
2017-03-14T11:48:14.283Z,10.6
2017-03-14T11:49:17.123Z,10.6
2017-03-14T11:50:19.957Z,10.6
2017-03-14T11:51:22.543Z,10.6
2017-03-14T11:52:24.882Z,10.6
2017-03-14T11:53:27.715Z,10.5
2017-03-14T11:54:30.546Z,10.5
2017-03-14T11:55:32.880Z,10.5
2017-03-14T11:56:35.974Z,10.4
2017-03-14T11:57:38.307Z,10.3
2017-03-14T11:58:41.139Z,10.3
2017-03-14T11:59:43.848Z,10.3
2017-03-14T12:00:46.552Z,10.3
2017-03-14T12:01:49.146Z,10.3
2017-03-14T12:02:51.848Z,10.3
2017-03-14T12:03:54.691Z,10.4
2017-03-14T12:04:57.023Z,10.5
2017-03-14T12:05:59.864Z,10.6
2017-03-14T12:07:02.947Z,10.8
2017-03-14T12:08:05.152Z,11
2017-03-14T12:09:07.989Z,11.3
2017-03-14T12:10:10.320Z,11.6
2017-03-14T12:11:13.158Z,11.8
2017-03-14T12:12:16.243Z,12
2017-03-14T12:13:18.439Z,11.9
2017-03-14T12:14:21.277Z,12
2017-03-14T12:15:23.616Z,12
2017-03-14T12:16:26.453Z,12.1
2017-03-14T12:17:29.470Z,12.3
2017-03-14T12:18:31.805Z,12.4
2017-03-14T12:19:34.642Z,12.5
2017-03-14T12:20:37.532Z,12.4
2017-03-14T12:21:39.728Z,12.3
2017-03-14T12:22:42.680Z,12.3
2017-03-14T12:23:45.015Z,12.3
2017-03-14T12:24:47.721Z,12.3
2017-03-14T12:25:50.561Z,12.3
2017-03-14T12:26:53.269Z,12.4
2017-03-14T12:27:56.364Z,12.3
2017-03-14T12:28:58.561Z,12.5
2017-03-14T12:30:01.398Z,12.5
2017-03-14T12:32:06.372Z,12.7
2017-03-14T12:33:09.457Z,12.8
2017-03-14T12:34:12.296Z,12.9
2017-03-14T12:35:14.634Z,12.8
2017-03-14T12:36:17.342Z,12.8
2017-03-14T12:37:20.181Z,12.6
2017-03-14T12:38:23.273Z,12.5
2017-03-14T12:39:25.609Z,12.6
2017-03-14T12:40:28.448Z,12.6
2017-03-14T12:41:30.780Z,12.6
2017-03-14T12:42:33.621Z,12.5
2017-03-14T12:43:36.712Z,12.4
2017-03-14T12:44:39.047Z,12.1
2017-03-14T12:45:41.390Z,12.1
2017-03-14T12:46:44.222Z,12
2017-03-14T12:47:47.068Z,11.9
2017-03-14T12:48:49.757Z,11.9
2017-03-14T12:49:52.462Z,12
2017-03-14T12:50:55.278Z,12.1
2017-03-14T12:51:57.608Z,12.1
2017-03-14T12:53:00.443Z,12.3
2017-03-14T12:54:03.537Z,12.5
2017-03-14T12:55:06.427Z,12.6
2017-03-14T12:56:09.181Z,12.8
2017-03-14T12:57:11.012Z,12.8
2017-03-14T12:58:13.578Z,12.8
2017-03-14T12:59:16.665Z,12.8
2017-03-14T13:00:19.377Z,12.8
2017-03-14T13:01:21.734Z,12.9
2017-03-14T13:02:24.571Z,12.9
2017-03-14T13:03:27.460Z,12.8
2017-03-14T13:04:30.051Z,12.9
2017-03-14T13:05:32.890Z,13
2017-03-14T13:06:35.228Z,13.1
2017-03-14T13:07:38.066Z,13.1
2017-03-14T13:08:40.899Z,13
2017-03-14T13:09:43.534Z,13
2017-03-14T13:10:46.370Z,13
2017-03-14T13:11:48.708Z,13
2017-03-14T13:12:51.547Z,12.9
2017-03-14T13:13:54.255Z,12.8
2017-03-14T13:14:57.345Z,12.8
2017-03-14T13:15:59.540Z,12.8
2017-03-14T13:17:02.375Z,12.8
2017-03-14T13:18:05.210Z,12.8
2017-03-14T13:19:07.543Z,12.8
2017-03-14T13:20:10.495Z,12.7
2017-03-14T13:21:13.892Z,12.6
2017-03-14T13:22:15.731Z,12.8
2017-03-14T13:23:18.430Z,12.8
2017-03-14T13:24:21.000Z,12.8
2017-03-14T13:25:24.633Z,12.9
2017-03-14T13:26:26.461Z,13
2017-03-14T13:27:29.297Z,12.9
2017-03-14T13:28:32.133Z,12.9
2017-03-14T13:29:34.469Z,12.9
2017-03-14T13:30:37.608Z,12.9
2017-03-14T13:31:39.947Z,12.9
2017-03-14T13:32:42.780Z,12.9
2017-03-14T13:33:45.618Z,12.8
2017-03-14T13:34:47.949Z,12.8
2017-03-14T13:36:53.964Z,12.8
2017-03-14T13:37:56.303Z,12.8
2017-03-14T13:38:59.142Z,12.4
2017-03-14T13:40:01.477Z,12.3
2017-03-14T13:41:04.312Z,12.4
2017-03-14T13:42:07.399Z,12.5
2017-03-14T13:43:09.733Z,12.5
2017-03-14T13:44:12.569Z,12.6
2017-03-14T13:45:14.906Z,12.6
2017-03-14T13:46:17.606Z,12.6
2017-03-14T13:47:20.631Z,12.6
2017-03-14T13:48:23.340Z,12.5
2017-03-14T13:49:25.687Z,12.5
2017-03-14T13:50:28.524Z,12.4
2017-03-14T13:51:31.222Z,12.3
2017-03-14T13:52:34.903Z,12.3
2017-03-14T13:53:36.739Z,12.4
2017-03-14T13:54:39.573Z,12.5
2017-03-14T13:55:41.905Z,12.4
2017-03-14T13:56:44.739Z,12.3
2017-03-14T13:57:47.827Z,12.1
2017-03-14T13:58:50.156Z,12.2
2017-03-14T13:59:52.721Z,12.1
2017-03-14T14:00:55.555Z,12.2
2017-03-14T14:01:58.390Z,12.3
2017-03-14T14:03:01.350Z,12.5
2017-03-14T14:04:03.684Z,12.5
2017-03-14T14:05:06.521Z,12.5
2017-03-14T14:06:08.783Z,12.5
2017-03-14T14:07:11.621Z,12.4
2017-03-14T14:08:14.713Z,12.3
2017-03-14T14:09:17.049Z,12.1
2017-03-14T14:10:20.464Z,12.1
2017-03-14T14:11:22.296Z,12.1
2017-03-14T14:12:25.010Z,12.1
2017-03-14T14:13:28.099Z,12
2017-03-14T14:14:30.429Z,12
2017-03-14T14:15:33.133Z,12
2017-03-14T14:16:35.974Z,12
2017-03-14T14:17:38.814Z,12.1
2017-03-14T14:18:41.766Z,12.2
2017-03-14T14:19:43.916Z,12.2
2017-03-14T14:20:46.623Z,12.3
2017-03-14T14:21:50.022Z,12.3
2017-03-14T14:22:52.224Z,12.3
2017-03-14T14:23:55.321Z,12.3
2017-03-14T14:24:57.659Z,12.3
2017-03-14T14:25:59.856Z,12.2
2017-03-14T14:27:02.555Z,12.1
2017-03-14T14:28:05.392Z,12.2
2017-03-14T14:29:08.484Z,12.1
2017-03-14T14:30:10.815Z,12.1
2017-03-14T14:31:13.576Z,12.1
2017-03-14T14:32:16.410Z,12.1
2017-03-14T14:33:19.117Z,12
2017-03-14T14:34:22.259Z,12